Time;durP1;ratioP1;P1;durP2;ratioP2;P2;SDS_P1;SDS_P2;PMS_P1;PMS_P2;Temp;Humidity;BMP_temperature;BMP_pressure;BME280_temperature;BME280_humidity;BME280_pressure;Samples;Min_cycle;Max_cycle;Signal;HPM_P1;HPM_P2
2021/11/01 00:02:16;;;;;;;3.47;2.28;;;12.40;99.90;;;;;;5055923;28;20024;-86
2021/11/01 00:04:44;;;;;;;3.85;2.47;;;12.50;99.90;;;;;;5055790;28;20541;-85
2021/11/01 00:07:11;;;;;;;4.50;2.60;;;12.50;99.90;;;;;;5055659;28;20024;-86
2021/11/01 00:09:37;;;;;;;3.40;2.53;;;12.50;99.90;;;;;;5055522;28;20481;-86
2021/11/01 00:12:04;;;;;;;3.15;2.40;;;12.50;99.90;;;;;;5055556;28;20052;-86
2021/11/01 00:14:30;;;;;;;3.97;2.60;;;12.60;99.90;;;;;;5055425;28;20028;-85
2021/11/01 00:16:57;;;;;;;4.32;2.67;;;12.70;99.90;;;;;;5055381;28;20023;-85
2021/11/01 00:19:24;;;;;;;5.45;2.05;;;12.70;99.90;;;;;;5073319;28;20017;-86
2021/11/01 00:21:50;;;;;;;1.85;1.52;;;12.90;99.90;;;;;;5055346;28;20472;-85
2021/11/01 00:24:15;;;;;;;5.43;1.35;;;13.10;99.90;;;;;;5055618;28;20035;-85
2021/11/01 00:26:41;;;;;;;5.13;0.98;;;13.40;99.90;;;;;;5055242;28;20507;-85
2021/11/01 00:29:07;;;;;;;3.08;1.60;;;13.50;99.90;;;;;;5055338;28;20020;-85
2021/11/01 00:31:34;;;;;;;2.00;1.48;;;13.50;99.90;;;;;;5055168;28;20040;-86
2021/11/01 00:34:00;;;;;;;2.53;1.10;;;13.60;99.90;;;;;;5055423;28;20107;-85
2021/11/01 00:36:25;;;;;;;1.85;1.05;;;13.60;99.90;;;;;;5073456;28;20051;-84
2021/11/01 00:38:52;;;;;;;1.98;0.80;;;13.70;99.90;;;;;;5073157;28;20442;-85
2021/11/01 00:41:18;;;;;;;3.22;0.82;;;13.70;99.90;;;;;;5055094;28;20067;-84
2021/11/01 00:43:44;;;;;;;2.20;1.17;;;13.80;99.90;;;;;;5055198;28;20063;-85
2021/11/01 00:46:09;;;;;;;2.70;1.45;;;13.70;99.90;;;;;;5055122;28;20056;-86
2021/11/01 00:48:36;;;;;;;2.72;1.63;;;13.70;99.90;;;;;;5055096;28;20029;-86
2021/11/01 00:51:02;;;;;;;3.80;1.10;;;13.70;99.90;;;;;;5055074;28;20039;-86
2021/11/01 00:53:31;;;;;;;2.00;1.02;;;13.60;99.90;;;;;;5054973;28;20033;-86
2021/11/01 00:55:59;;;;;;;1.50;0.90;;;13.60;99.90;;;;;;5055034;28;20025;-86
2021/11/01 00:58:26;;;;;;;2.40;1.45;;;13.60;99.90;;;;;;5055034;28;20097;-85
2021/11/01 01:00:52;;;;;;;1.33;0.93;;;13.60;99.90;;;;;;5054716;28;20545;-85
2021/11/01 01:03:19;;;;;;;2.65;1.13;;;13.60;99.90;;;;;;5055479;28;20052;-85
2021/11/01 01:05:45;;;;;;;2.13;0.95;;;13.60;99.90;;;;;;5059154;28;20025;-85
2021/11/01 01:08:13;;;;;;;2.85;1.02;;;13.70;99.90;;;;;;5058873;28;20161;-86
2021/11/01 01:10:40;;;;;;;3.30;0.95;;;13.70;99.90;;;;;;5059115;28;20028;-86
2021/11/01 01:13:06;;;;;;;1.50;0.88;;;13.70;99.90;;;;;;5058770;28;20444;-84
2021/11/01 01:18:22;;;;;;;3.13;1.42;;;13.90;99.90;;;;;;5045561;28;20040;-86
2021/11/01 01:20:49;;;;;;;1.27;0.80;;;13.90;99.90;;;;;;5076582;28;20506;-86
2021/11/01 01:23:15;;;;;;;3.10;1.00;;;13.90;99.90;;;;;;5058591;28;20046;-86
2021/11/01 01:25:45;;;;;;;5.10;0.90;;;13.90;99.90;;;;;;5058492;28;20021;-85
2021/11/01 01:28:12;;;;;;;2.97;0.90;;;13.80;99.90;;;;;;5058393;28;20036;-85
2021/11/01 01:30:39;;;;;;;1.23;0.80;;;13.70;99.90;;;;;;5058482;28;20078;-87
2021/11/01 01:33:08;;;;;;;2.35;0.98;;;13.80;99.90;;;;;;5076399;28;20020;-85
2021/11/01 01:35:36;;;;;;;2.13;0.95;;;13.80;99.90;;;;;;5058482;28;20028;-86
2021/11/01 01:38:03;;;;;;;2.90;1.10;;;13.80;99.90;;;;;;5058441;28;20024;-85
2021/11/01 01:40:28;;;;;;;2.08;0.82;;;13.70;99.90;;;;;;5058552;28;20028;-85
2021/11/01 01:42:54;;;;;;;1.55;0.88;;;13.60;99.90;;;;;;5058356;28;20029;-86
2021/11/01 01:45:20;;;;;;;1.55;1.00;;;13.60;99.90;;;;;;5058241;28;20016;-85
2021/11/01 01:47:47;;;;;;;5.40;1.40;;;13.50;99.90;;;;;;5058200;28;20025;-86
2021/11/01 01:50:14;;;;;;;2.92;1.10;;;13.40;99.90;;;;;;5058447;28;20408;-86
2021/11/01 01:52:41;;;;;;;2.65;0.93;;;13.30;99.90;;;;;;5058297;28;20025;-86
2021/11/01 01:55:09;;;;;;;2.97;1.08;;;13.10;99.90;;;;;;5076081;28;20025;-85
2021/11/01 01:57:36;;;;;;;0.88;0.65;;;13.00;99.90;;;;;;5078521;28;20058;-86
2021/11/01 02:00:06;;;;;;;2.15;0.73;;;12.80;99.90;;;;;;5066791;28;20480;-85
2021/11/01 02:02:32;;;;;;;5.18;1.40;;;12.70;99.90;;;;;;5065629;28;20024;-86
2021/11/01 02:04:57;;;;;;;2.50;1.10;;;12.50;99.90;;;;;;5059067;28;20036;-86
2021/11/01 02:07:33;;;;;;;2.67;0.80;;;12.40;99.90;;;;;;5058529;28;20028;-86
2021/11/01 02:10:10;;;;;;;2.10;0.70;;;12.20;99.90;;;;;;5058056;28;20510;-85
2021/11/01 02:12:42;;;;;;;9.32;1.00;;;12.10;99.90;;;;;;5057900;28;20055;-85
2021/11/01 02:15:25;;;;;;;3.22;1.00;;;12.00;99.90;;;;;;5056420;28;20531;-85
2021/11/01 02:17:53;;;;;;;2.22;0.95;;;12.00;99.90;;;;;;5075753;28;20024;-86
2021/11/01 02:20:38;;;;;;;1.98;0.65;;;12.00;99.90;;;;;;5057614;28;20025;-85
2021/11/01 02:23:30;;;;;;;4.07;0.85;;;11.90;99.90;;;;;;5075645;28;20024;-86
2021/11/01 02:25:59;;;;;;;2.35;1.20;;;11.90;99.90;;;;;;5057562;28;20059;-86
2021/11/01 02:28:26;;;;;;;3.80;0.80;;;11.80;99.90;;;;;;5057489;28;20025;-85
2021/11/01 02:30:53;;;;;;;3.17;0.60;;;11.90;99.90;;;;;;5075427;28;20024;-86
2021/11/01 02:33:20;;;;;;;2.90;0.75;;;11.90;99.90;;;;;;5057400;28;20504;-85
2021/11/01 02:35:46;;;;;;;2.03;0.70;;;11.90;99.90;;;;;;5057377;28;20384;-86
2021/11/01 02:38:18;;;;;;;1.45;0.43;;;11.90;99.90;;;;;;5057316;28;20020;-86
2021/11/01 02:40:45;;;;;;;2.60;0.63;;;11.90;99.90;;;;;;5057282;28;20505;-85
2021/11/01 02:43:11;;;;;;;0.95;0.65;;;11.90;99.90;;;;;;5057175;28;20049;-85
2021/11/01 02:45:37;;;;;;;1.35;0.70;;;11.90;99.90;;;;;;5057165;28;20025;-85
2021/11/01 02:48:03;;;;;;;1.52;0.60;;;11.90;99.90;;;;;;5057120;28;20095;-85
2021/11/01 02:50:29;;;;;;;2.42;0.60;;;11.90;99.90;;;;;;5057140;28;20027;-85
2021/11/01 02:52:55;;;;;;;2.97;0.70;;;11.90;99.90;;;;;;5056843;28;20021;-85
2021/11/01 02:55:21;;;;;;;0.90;0.60;;;11.80;99.90;;;;;;5057293;28;20040;-85
2021/11/01 02:57:48;;;;;;;3.60;0.60;;;11.70;99.90;;;;;;5056857;28;20563;-85
2021/11/01 03:00:18;;;;;;;1.95;0.50;;;11.80;99.90;;;;;;5074609;28;20052;-85
2021/11/01 03:02:45;;;;;;;3.97;0.85;;;11.80;99.90;;;;;;5056805;28;20020;-84
2021/11/01 03:05:14;;;;;;;2.47;0.60;;;11.80;99.90;;;;;;5056779;28;20025;-84
2021/11/01 03:07:41;;;;;;;2.15;0.93;;;11.70;99.90;;;;;;5056695;28;20166;-84
2021/11/01 03:10:09;;;;;;;3.17;0.52;;;11.70;99.90;;;;;;5056622;28;20027;-84
2021/11/01 03:12:41;;;;;;;1.77;0.47;;;11.70;99.90;;;;;;5056540;28;20028;-84
2021/11/01 03:15:09;;;;;;;1.85;0.90;;;11.70;99.90;;;;;;5056581;28;20111;-85
2021/11/01 03:17:40;;;;;;;3.22;0.60;;;11.60;99.90;;;;;;5056460;28;20115;-85
2021/11/01 03:20:09;;;;;;;2.97;0.65;;;11.50;99.90;;;;;;5056453;28;20048;-85
2021/11/01 03:22:52;;;;;;;2.50;0.90;;;11.40;99.90;;;;;;5056386;28;20395;-85
2021/11/01 03:25:26;;;;;;;3.45;0.80;;;11.40;99.90;;;;;;5056317;28;20365;-85
2021/11/01 03:27:54;;;;;;;2.03;0.65;;;11.40;99.90;;;;;;5055925;28;20117;-86
2021/11/01 03:30:21;;;;;;;1.70;0.50;;;11.40;99.90;;;;;;5056298;28;20500;-87
2021/11/01 03:32:51;;;;;;;2.42;0.47;;;11.40;99.90;;;;;;5056296;28;20070;-87
2021/11/01 03:35:20;;;;;;;1.48;0.65;;;11.40;99.90;;;;;;5056122;28;20032;-87
2021/11/01 03:37:50;;;;;;;1.88;0.82;;;11.30;99.90;;;;;;5056128;28;20028;-88
2021/11/01 03:40:19;;;;;;;3.75;0.80;;;11.30;99.90;;;;;;5056230;28;20440;-87
2021/11/01 03:42:47;;;;;;;5.72;0.50;;;11.40;99.90;;;;;;5056062;28;20085;-87
2021/11/01 03:45:14;;;;;;;3.00;0.75;;;11.30;99.90;;;;;;5055980;28;20451;-87
2021/11/01 03:47:43;;;;;;;3.50;0.80;;;11.30;99.90;;;;;;5056297;28;20464;-87
2021/11/01 03:52:47;;;;;;;2.45;0.65;;;11.20;99.90;;;;;;5074148;28;20020;-87
2021/11/01 03:55:13;;;;;;;2.28;0.50;;;11.20;99.90;;;;;;5073666;28;20021;-88
2021/11/01 03:57:39;;;;;;;2.40;0.70;;;11.20;99.90;;;;;;5055699;28;20027;-87
2021/11/01 04:00:07;;;;;;;5.05;0.70;;;11.20;99.90;;;;;;5073492;28;20036;-87
2021/11/01 04:02:33;;;;;;;1.30;0.60;;;11.20;99.90;;;;;;5055780;28;20392;-87
2021/11/01 04:05:02;;;;;;;6.57;1.20;;;11.20;99.90;;;;;;5059570;28;20024;-86
2021/11/01 04:07:32;;;;;;;3.90;0.75;;;11.10;99.90;;;;;;5074713;28;20060;-87
2021/11/01 04:09:59;;;;;;;2.50;0.70;;;11.10;99.90;;;;;;5070366;28;20267;-87
2021/11/01 04:12:30;;;;;;;2.80;0.75;;;11.10;99.90;;;;;;5076783;28;20468;-87
2021/11/01 04:15:11;;;;;;;5.55;1.85;;;11.10;99.90;;;;;;5057028;28;20028;-88
2021/11/01 04:17:42;;;;;;;2.92;0.90;;;11.00;99.90;;;;;;5032986;28;20026;-88
2021/11/01 04:22:38;;;;;;;2.28;0.50;;;11.00;99.90;;;;;;5016098;28;20044;-88
2021/11/01 04:25:06;;;;;;;6.07;1.20;;;11.00;99.90;;;;;;5015603;28;20026;-88
2021/11/01 04:27:33;;;;;;;4.28;0.70;;;10.90;99.90;;;;;;5015055;28;20045;-87
2021/11/01 04:30:00;;;;;;;1.48;0.60;;;10.90;99.90;;;;;;5014828;28;20036;-88
2021/11/01 04:32:37;;;;;;;2.78;0.90;;;11.00;99.90;;;;;;5014983;28;20030;-88
2021/11/01 04:35:18;;;;;;;2.15;0.63;;;10.90;99.90;;;;;;5015336;28;20108;-88
2021/11/01 04:37:46;;;;;;;1.90;0.52;;;11.00;99.90;;;;;;5014189;28;20036;-88
2021/11/01 04:53:39;;;;;;;3.92;0.93;;;11.10;99.90;;;;;;5073248;28;20075;-87
2021/11/01 04:56:05;;;;;;;4.40;0.65;;;11.20;99.90;;;;;;5055009;28;20051;-88
2021/11/01 04:58:32;;;;;;;1.42;0.50;;;11.10;99.90;;;;;;5055354;28;20056;-88
2021/11/01 05:00:58;;;;;;;1.30;0.45;;;11.10;99.90;;;;;;5055095;28;20055;-87
2021/11/01 05:05:54;;;;;;;1.67;0.45;;;11.00;99.90;;;;;;5073256;28;20063;-88
2021/11/01 05:08:23;;;;;;;2.42;0.60;;;11.10;99.90;;;;;;5055258;28;20119;-88
2021/11/01 05:10:51;;;;;;;0.82;0.45;;;11.10;99.90;;;;;;5055811;28;20129;-88
2021/11/01 05:13:24;;;;;;;2.33;0.40;;;11.10;99.90;;;;;;5054909;28;20059;-87
2021/11/01 05:15:57;;;;;;;4.70;0.65;;;11.10;99.90;;;;;;5054980;28;20020;-88
2021/11/01 05:18:32;;;;;;;5.70;0.60;;;11.10;99.90;;;;;;5055851;28;20016;-88
2021/11/01 05:23:43;;;;;;;1.85;0.57;;;11.30;99.90;;;;;;5073158;28;20523;-88
2021/11/01 05:26:15;;;;;;;1.92;0.60;;;11.30;99.90;;;;;;5054813;28;20032;-88
2021/11/01 05:28:45;;;;;;;3.65;0.63;;;11.20;99.90;;;;;;5055031;28;20115;-88
2021/11/01 05:31:25;;;;;;;3.58;0.90;;;11.30;99.90;;;;;;5055117;28;20025;-88
2021/11/01 05:36:18;;;;;;;1.67;0.50;;;11.10;99.90;;;;;;5073073;28;20380;-88
2021/11/01 05:38:44;;;;;;;1.80;0.50;;;11.20;99.90;;;;;;5055422;28;20536;-88
2021/11/01 05:41:09;;;;;;;2.28;0.55;;;11.30;99.90;;;;;;5054709;28;20051;-88
2021/11/01 05:43:36;;;;;;;1.95;0.40;;;11.10;99.90;;;;;;5054582;28;20504;-88
2021/11/01 05:46:02;;;;;;;1.45;0.55;;;11.10;99.90;;;;;;5054821;28;20027;-89
2021/11/01 05:48:28;;;;;;;1.10;0.40;;;11.00;99.90;;;;;;5072648;28;20028;-88
2021/11/01 05:50:55;;;;;;;1.40;0.52;;;11.00;99.90;;;;;;5075511;28;20079;-89
2021/11/01 05:53:23;;;;;;;3.03;0.40;;;10.90;99.90;;;;;;5058633;28;20503;-90
2021/11/01 05:55:55;;;;;;;0.60;0.35;;;10.90;99.90;;;;;;5059216;28;20119;-89
2021/11/01 06:01:22;;;;;;;5.53;0.50;;;10.80;99.90;;;;;;5076369;28;20051;-89
2021/11/01 06:04:04;;;;;;;2.13;0.63;;;10.70;99.90;;;;;;5058273;28;20028;-90
2021/11/01 06:06:44;;;;;;;3.20;0.70;;;10.80;99.90;;;;;;5058305;28;20020;-89
2021/11/01 06:09:20;;;;;;;1.38;0.57;;;10.80;99.90;;;;;;5059410;28;20036;-89
2021/11/01 06:14:30;;;;;;;2.55;0.70;;;10.60;99.90;;;;;;5094081;28;20111;-89
2021/11/01 06:16:56;;;;;;;1.60;0.60;;;10.60;99.90;;;;;;5083301;28;20047;-90
2021/11/01 06:19:22;;;;;;;3.90;0.70;;;10.50;99.90;;;;;;5065504;28;20119;-90
2021/11/01 06:21:49;;;;;;;1.73;0.50;;;10.40;99.90;;;;;;5059920;28;20498;-90
2021/11/01 06:24:48;;;;;;;1.40;0.43;;;10.40;99.90;;;;;;5058322;28;20017;-90
2021/11/01 06:27:07;;;;;;;1.45;0.30;;;10.40;99.90;;;;;;5075703;28;20476;-90
2021/11/01 06:29:43;;;;;;;4.28;0.75;;;10.40;99.90;;;;;;5058229;28;20029;-90
2021/11/01 06:32:15;;;;;;;1.83;0.57;;;10.40;99.90;;;;;;5057664;28;20020;-89
2021/11/01 06:40:31;;;;;;;3.53;0.88;;;10.40;99.90;;;;;;5075761;28;20043;-89
2021/11/01 06:43:06;;;;;;;3.05;0.70;;;10.40;99.90;;;;;;5057785;28;20021;-90
2021/11/01 06:45:41;;;;;;;3.63;0.80;;;10.30;99.90;;;;;;5058314;28;20039;-89
2021/11/01 07:17:57;;;;;;;1.83;0.60;;;10.50;99.90;;;;;;5075028;28;20078;-86
2021/11/01 09:01:24;;;;;;;7.28;1.10;;;10.30;99.90;;;;;;5074355;28;20032;-88
2021/11/01 09:03:05;;;;;;;2.33;1.20;;;10.30;99.90;;;;;;5076946;28;20032;-87
2021/11/01 09:05:56;;;;;;;3.58;1.10;;;10.40;99.90;;;;;;5057772;28;20314;-87
2021/11/01 09:27:06;;;;;;;1.60;0.90;;;10.60;99.90;;;;;;5077045;28;20021;-86
2021/11/01 09:41:22;;;;;;;;;;;10.30;99.90;;;;;;5076997;28;20120;-87
2021/11/01 09:43:16;;;;;;;4.38;1.48;;;10.30;99.90;;;;;;5062747;28;19954;-87
2021/11/01 09:45:42;;;;;;;3.60;1.00;;;10.40;99.90;;;;;;5058626;28;20074;-87
2021/11/01 09:48:09;;;;;;;3.33;1.27;;;10.40;99.90;;;;;;5058227;28;20081;-85
2021/11/01 09:50:35;;;;;;;2.45;1.00;;;10.50;99.90;;;;;;5057865;28;20016;-87
2021/11/01 09:53:08;;;;;;;4.10;1.27;;;10.50;99.90;;;;;;5058446;28;20032;-86
2021/11/01 10:00:48;;;;;;;1.88;0.90;;;10.20;99.90;;;;;;5076258;28;20502;-86
2021/11/01 10:03:14;;;;;;;2.63;1.10;;;10.40;99.90;;;;;;5057739;28;20017;-85
2021/11/01 10:05:53;;;;;;;2.70;1.00;;;10.30;99.90;;;;;;5058093;28;20017;-85
2021/11/01 10:08:19;;;;;;;2.67;0.95;;;10.40;99.90;;;;;;5057975;28;20067;-85
2021/11/01 10:10:45;;;;;;;2.63;1.00;;;10.40;99.90;;;;;;5057762;28;20048;-85
2021/11/01 10:13:16;;;;;;;4.82;1.15;;;10.50;99.90;;;;;;5057820;28;20459;-86
2021/11/01 10:18:28;;;;;;;20.77;11.70;;;10.40;99.90;;;;;;5076255;28;20076;-82
2021/11/01 10:20:58;;;;;;;3.60;1.90;;;10.50;99.90;;;;;;5075569;28;20484;-81
2021/11/01 10:23:32;;;;;;;3.80;1.20;;;10.50;99.90;;;;;;5057590;28;20024;-81
2021/11/01 10:26:07;;;;;;;5.55;1.80;;;10.60;99.90;;;;;;5057568;28;20545;-82
2021/11/01 10:28:34;;;;;;;2.95;1.67;;;10.60;99.90;;;;;;5057488;28;20115;-81
2021/11/01 10:31:19;;;;;;;2.60;1.23;;;10.60;99.90;;;;;;5057400;28;20462;-81
2021/11/01 10:33:46;;;;;;;2.92;1.45;;;10.70;99.90;;;;;;5057613;28;20031;-81
2021/11/01 10:36:24;;;;;;;2.50;1.40;;;10.80;99.90;;;;;;5056089;28;20032;-82
2021/11/01 10:39:04;;;;;;;4.07;1.33;;;10.70;99.90;;;;;;5057219;28;20024;-81
2021/11/01 10:42:19;;;;;;;2.50;1.70;;;10.80;99.90;;;;;;5057057;28;20070;-81
2021/11/01 11:14:46;;;;;;;5.55;2.50;;;10.20;99.90;;;;;;5074576;28;20047;-81
2021/11/01 11:20:09;;;;;;;1.67;1.00;;;10.20;99.90;;;;;;5074619;28;20024;-81
2021/11/01 11:25:31;;;;;;;3.38;1.20;;;10.70;99.90;;;;;;5074212;28;20055;-81
2021/11/01 11:39:28;;;;;;;5.57;4.07;;;10.90;99.90;;;;;;5074602;28;20380;-83
2021/11/01 11:50:34;;;;;;;1.55;1.00;;;10.60;99.90;;;;;;4973325;28;20494;-83
2021/11/01 11:53:15;;;;;;;3.67;1.40;;;10.40;99.90;;;;;;5024509;28;20043;-82
2021/11/01 11:55:44;;;;;;;4.50;2.30;;;10.30;99.90;;;;;;5073702;28;20504;-82
2021/11/01 11:58:14;;;;;;;1.83;1.08;;;10.50;99.90;;;;;;5055715;28;20017;-81
2021/11/01 12:00:40;;;;;;;2.13;0.85;;;10.40;99.90;;;;;;5055573;28;20086;-84
2021/11/01 12:03:11;;;;;;;3.17;1.50;;;10.40;99.90;;;;;;5073580;28;20476;-82
2021/11/01 12:05:43;;;;;;;1.83;0.93;;;10.50;99.90;;;;;;5055719;28;20023;-82
2021/11/01 12:13:58;;;;;;;9.88;5.78;;;10.40;99.90;;;;;;5073711;28;20028;-81
2021/11/01 12:19:05;;;;;;;4.97;2.63;;;10.70;99.90;;;;;;5073979;28;20085;-82
2021/11/01 12:21:37;;;;;;;7.03;4.03;;;10.50;99.90;;;;;;5055413;28;20499;-82
2021/11/01 12:24:08;;;;;;;4.20;2.25;;;10.60;99.90;;;;;;5055418;28;20121;-82
2021/11/01 12:26:34;;;;;;;9.95;5.65;;;10.40;99.90;;;;;;5055447;28;20480;-82
2021/11/01 12:29:06;;;;;;;3.40;2.05;;;10.50;99.90;;;;;;5055368;28;20029;-82
2021/11/01 12:31:32;;;;;;;1.85;1.05;;;10.40;99.90;;;;;;5055349;28;20029;-82
2021/11/01 12:34:06;;;;;;;3.92;1.00;;;10.40;99.90;;;;;;5055209;28;20021;-82
2021/11/01 12:37:38;;;;;;;3.97;0.93;;;10.40;99.90;;;;;;5055757;28;20048;-83
2021/11/01 12:39:35;;;;;;;2.67;1.00;;;10.50;99.90;;;;;;5051850;28;20112;-80
2021/11/01 12:48:05;;;;;;;1.90;0.98;;;10.60;99.90;;;;;;5073452;28;20082;-82
2021/11/01 12:58:59;;;;;;;3.13;1.40;;;10.50;99.90;;;;;;5073732;28;20082;-82
2021/11/01 13:01:29;;;;;;;2.60;0.90;;;10.40;99.90;;;;;;5058924;28;20492;-82
2021/11/01 13:04:10;;;;;;;1.27;0.80;;;10.60;99.90;;;;;;5059067;28;20476;-82
2021/11/01 13:09:13;;;;;;;1.75;0.80;;;10.80;99.90;;;;;;5076908;28;20488;-81
2021/11/01 13:14:46;;;;;;;4.82;2.50;;;10.80;99.90;;;;;;5042836;28;20437;-81
2021/11/01 13:20:05;;;;;;;6.30;3.22;;;10.90;99.90;;;;;;5076957;28;20106;-81
2021/11/01 13:22:41;;;;;;;10.85;4.25;;;11.00;99.90;;;;;;5076685;28;20020;-81
2021/11/01 13:36:41;;;;;;;2.83;1.27;;;11.30;99.90;;;;;;5077082;28;20450;-82
2021/11/01 13:39:08;;;;;;;5.38;1.08;;;11.20;99.90;;;;;;5030934;28;20036;-81
2021/11/01 13:41:35;;;;;;;2.05;1.00;;;11.20;99.90;;;;;;5058921;28;20063;-81
2021/11/01 13:44:13;;;;;;;4.53;0.90;;;11.30;99.90;;;;;;5058339;28;20419;-81
2021/11/01 13:46:47;;;;;;;3.22;1.00;;;11.70;99.90;;;;;;5058218;28;20059;-82
2021/11/01 13:49:13;;;;;;;;;;;12.70;99.90;;;;;;5058601;28;20028;-82
2021/11/01 13:51:39;;;;;;;2.33;0.80;;;12.80;99.90;;;;;;5058169;28;20275;-81
2021/11/01 13:54:11;;;;;;;5.13;1.15;;;12.80;99.90;;;;;;5058032;28;20027;-81
2021/11/01 13:56:44;;;;;;;1.95;1.05;;;12.60;99.90;;;;;;5057975;28;20024;-81
2021/11/01 14:12:58;;;;;;;2.50;1.05;;;11.70;99.90;;;;;;5076033;28;20044;-81
2021/11/01 14:28:57;;;;;;;5.55;1.75;;;11.80;99.90;;;;;;5075790;28;20120;-82
2021/11/01 15:16:16;;;;;;;6.05;1.20;;;11.30;99.90;;;;;;5074520;28;20047;-82
2021/11/01 16:17:59;;;;;;;3.63;2.00;;;10.50;99.90;;;;;;5073660;28;20021;-82
2021/11/01 16:20:26;;;;;;;5.45;3.03;;;10.50;99.90;;;;;;5055503;28;20476;-81
2021/11/01 16:25:27;;;;;;;5.72;2.80;;;10.50;99.90;;;;;;5073440;28;20081;-82
2021/11/01 16:27:53;;;;;;;6.03;3.25;;;10.50;99.90;;;;;;5055319;28;20029;-81
2021/11/01 16:30:22;;;;;;;4.85;2.10;;;10.40;99.90;;;;;;5055188;28;20024;-82
2021/11/01 16:33:08;;;;;;;3.42;1.63;;;10.50;99.90;;;;;;5055285;28;20094;-82
2021/11/01 16:35:48;;;;;;;6.47;2.80;;;10.50;99.90;;;;;;5054401;28;20468;-81
2021/11/01 16:38:20;;;;;;;5.32;2.75;;;10.40;99.90;;;;;;5055277;28;20525;-82
2021/11/01 16:40:46;;;;;;;3.47;2.53;;;10.40;99.90;;;;;;5073496;28;20097;-82
2021/11/01 16:43:15;;;;;;;11.00;4.22;;;10.40;99.90;;;;;;5055226;28;20021;-82
2021/11/01 16:45:43;;;;;;;7.90;2.42;;;10.40;99.90;;;;;;5055140;28;20079;-82
2021/11/01 16:48:10;;;;;;;5.25;3.05;;;10.40;99.90;;;;;;5055401;28;20033;-82
2021/11/01 16:50:36;;;;;;;5.93;2.55;;;10.40;99.90;;;;;;5055124;28;20028;-82
2021/11/01 16:53:03;;;;;;;4.05;2.22;;;10.40;99.90;;;;;;5055131;28;20031;-82
2021/11/01 16:55:39;;;;;;;9.23;4.25;;;10.50;99.90;;;;;;5054983;28;20476;-82
2021/11/01 16:58:17;;;;;;;7.00;2.92;;;10.50;99.90;;;;;;5055094;28;20029;-82
2021/11/01 17:00:55;;;;;;;8.25;4.65;;;10.40;99.90;;;;;;5054707;28;20048;-82
2021/11/01 17:08:44;;;;;;;9.70;4.90;;;10.40;99.90;;;;;;5073187;28;20025;-82
2021/11/01 17:22:13;;;;;;;3.17;1.40;;;10.20;99.90;;;;;;5073436;28;20085;-81
2021/11/01 17:24:56;;;;;;;;;;;10.20;99.90;;;;;;5055255;28;20445;-82
2021/11/01 18:40:53;;;;;;;8.60;4.75;;;9.30;99.90;;;;;;5075603;28;20028;-82
2021/11/01 18:43:36;;;;;;;8.07;4.55;;;9.20;99.90;;;;;;5057328;28;20028;-82
2021/11/01 18:51:55;;;;;;;6.97;4.28;;;9.00;99.90;;;;;;5069877;28;20098;-82
2021/11/01 18:54:27;;;;;;;9.50;3.72;;;9.20;99.90;;;;;;5057000;28;20035;-82
2021/11/01 18:56:57;;;;;;;9.65;4.05;;;9.40;99.90;;;;;;5056124;28;20024;-82
2021/11/01 18:59:25;;;;;;;11.45;6.43;;;9.50;99.90;;;;;;5056902;28;20024;-82
2021/11/01 19:04:36;;;;;;;6.75;4.00;;;9.40;99.90;;;;;;5075255;28;20032;-82
2021/11/01 19:07:21;;;;;;;9.85;5.53;;;9.30;99.90;;;;;;5074767;28;20076;-82
2021/11/01 20:05:17;;;;;;;8.38;4.22;;;8.30;99.90;;;;;;5073957;28;20036;-82
2021/11/01 20:08:14;;;;;;;12.88;4.45;;;8.50;99.90;;;;;;5055643;28;20024;-82
2021/11/01 21:25:43;;;;;;;4.78;3.00;;;7.80;99.90;;;;;;5077249;28;20097;-82
2021/11/01 21:28:09;;;;;;;7.40;4.00;;;8.20;99.90;;;;;;5058550;28;20063;-82
2021/11/01 21:30:34;;;;;;;7.13;4.18;;;8.00;99.90;;;;;;5058559;28;20028;-82
2021/11/01 21:33:00;;;;;;;6.75;3.88;;;7.90;99.90;;;;;;5058555;28;20039;-82
2021/11/01 21:35:31;;;;;;;7.55;4.00;;;7.60;99.90;;;;;;5059055;28;20369;-82
2021/11/01 21:37:59;;;;;;;7.03;3.83;;;7.60;99.90;;;;;;5076700;28;20066;-82
2021/11/01 21:40:25;;;;;;;14.55;4.30;;;7.60;99.90;;;;;;5076575;28;20016;-82
2021/11/01 21:42:52;;;;;;;6.20;4.15;;;7.50;99.90;;;;;;5058609;28;20070;-82
2021/11/01 21:45:18;;;;;;;6.00;3.75;;;7.40;99.90;;;;;;5058297;28;20031;-83
2021/11/01 21:47:44;;;;;;;5.90;4.18;;;7.20;99.90;;;;;;5076267;28;20024;-82
2021/11/01 21:50:10;;;;;;;5.30;3.30;;;7.20;99.90;;;;;;5058215;28;20028;-82
2021/11/01 21:52:36;;;;;;;6.47;3.35;;;7.20;99.90;;;;;;5076323;28;20036;-82
2021/11/01 21:55:05;;;;;;;5.43;2.92;;;7.40;99.90;;;;;;5076008;28;20101;-82
2021/11/01 21:57:43;;;;;;;6.22;3.30;;;7.50;99.90;;;;;;5075968;28;20013;-82
2021/11/01 22:00:21;;;;;;;4.43;2.92;;;7.50;99.90;;;;;;5057995;28;20093;-82
2021/11/01 22:16:43;;;;;;;8.63;4.60;;;7.50;99.90;;;;;;5076396;28;20057;-82
2021/11/01 22:40:41;;;;;;;10.38;6.25;;;6.80;99.90;;;;;;5075904;28;20094;-82
2021/11/01 22:45:45;;;;;;;11.65;5.20;;;7.00;99.90;;;;;;5075277;28;20027;-82
2021/11/01 22:59:12;;;;;;;15.70;9.05;;;6.90;99.90;;;;;;5075008;28;20071;-82
2021/11/01 23:01:40;;;;;;;20.15;8.85;;;6.80;99.90;;;;;;5075508;28;20040;-82
2021/11/01 23:04:40;;;;;;;12.77;7.97;;;6.70;99.90;;;;;;5056888;28;20060;-82
2021/11/01 23:31:43;;;;;;;8.20;4.93;;;6.80;99.90;;;;;;5074884;28;20082;-82
2021/11/01 23:34:13;;;;;;;6.65;4.72;;;7.40;99.90;;;;;;5056256;28;20029;-82
2021/11/01 23:36:40;;;;;;;9.93;5.20;;;7.70;99.90;;;;;;5056332;28;20103;-82
2021/11/01 23:39:08;;;;;;;14.48;5.30;;;7.80;99.90;;;;;;5074198;28;20017;-82
2021/11/01 23:41:35;;;;;;;5.50;3.55;;;7.30;99.90;;;;;;5056196;28;20388;-82
2021/11/01 23:44:01;;;;;;;6.25;3.70;;;7.10;99.90;;;;;;5055581;28;20024;-82
2021/11/01 23:46:27;;;;;;;8.75;4.05;;;7.10;99.90;;;;;;5056075;28;20404;-82
2021/11/01 23:48:53;;;;;;;8.20;3.85;;;7.00;99.90;;;;;;5056055;28;20169;-82
2021/11/01 23:51:29;;;;;;;7.15;4.25;;;7.00;99.90;;;;;;5055985;28;20070;-82
2021/11/01 23:56:34;;;;;;;7.18;2.95;;;7.10;99.90;;;;;;5073763;28;20333;-82
2021/11/01 23:59:01;;;;;;;5.30;2.90;;;7.00;99.90;;;;;;5055789;28;20031;-82
